createdAt,value
2018-04-17T00:01:59.892Z,68.79
2018-04-17T00:04:28.225Z,68.71
2018-04-17T00:06:56.580Z,68.58
2018-04-17T00:09:24.908Z,68.42
2018-04-17T00:11:53.266Z,68.21
2018-04-17T00:14:21.601Z,68.17
2018-04-17T00:16:49.957Z,68.09
2018-04-17T00:19:18.294Z,67.96
2018-04-17T00:21:46.641Z,67.91
2018-04-17T00:24:14.977Z,67.82
2018-04-17T00:26:43.337Z,67.45
2018-04-17T00:29:11.669Z,67.44
2018-04-17T00:31:40.025Z,67.36
2018-04-17T00:34:08.361Z,67.80
2018-04-17T00:36:36.709Z,67.77
2018-04-17T00:39:05.041Z,67.11
2018-04-17T00:41:33.392Z,67.46
2018-04-17T00:44:01.733Z,67.69
2018-04-17T00:46:30.081Z,67.52
2018-04-17T00:48:58.416Z,67.49
2018-04-17T00:51:26.781Z,67.52
2018-04-17T00:53:58.569Z,67.32
2018-04-17T00:56:26.917Z,67.93
2018-04-17T00:58:55.249Z,67.85
2018-04-17T01:01:23.593Z,68.30
2018-04-17T01:03:51.920Z,68.46
2018-04-17T01:06:20.272Z,68.59
2018-04-17T01:08:48.604Z,68.39
2018-04-17T01:11:16.944Z,68.27
2018-04-17T01:13:45.277Z,68.21
2018-04-17T01:16:13.630Z,68.03
2018-04-17T01:18:41.960Z,67.85
2018-04-17T01:21:10.314Z,67.69
2018-04-17T01:23:38.657Z,68.24
2018-04-17T01:26:07.005Z,68.93
2018-04-17T01:28:35.340Z,68.86
2018-04-17T01:31:03.690Z,68.68
2018-04-17T01:33:32.013Z,68.75
2018-04-17T01:36:00.372Z,68.53
2018-04-17T01:38:28.701Z,68.36
2018-04-17T01:40:57.049Z,68.32
2018-04-17T01:43:25.385Z,68.52
2018-04-17T01:45:53.749Z,68.12
2018-04-17T01:48:22.070Z,68.37
2018-04-17T01:50:50.389Z,68.54
2018-04-17T01:53:18.745Z,68.11
2018-04-17T01:55:47.073Z,68.77
2018-04-17T01:58:15.421Z,69.36
2018-04-17T02:00:43.740Z,69.00
2018-04-17T02:03:12.100Z,68.72
2018-04-17T02:05:40.437Z,68.27
2018-04-17T02:08:08.789Z,68.42
2018-04-17T02:10:37.130Z,68.94
2018-04-17T02:13:05.493Z,69.10
2018-04-17T02:15:33.837Z,69.13
2018-04-17T02:18:02.199Z,68.57
2018-04-17T02:20:30.537Z,69.33
2018-04-17T02:22:58.892Z,69.73
2018-04-17T02:25:27.233Z,69.84
2018-04-17T02:27:55.593Z,69.38
2018-04-17T02:30:23.937Z,69.70
2018-04-17T02:32:52.306Z,69.66
2018-04-17T02:35:20.642Z,69.95
2018-04-17T02:37:49.001Z,70.11
2018-04-17T02:40:17.346Z,69.90
2018-04-17T02:42:45.709Z,69.87
2018-04-17T02:45:14.045Z,70.02
2018-04-17T02:47:42.405Z,70.04
2018-04-17T02:50:10.751Z,69.75
2018-04-17T02:52:39.108Z,69.72
2018-04-17T02:55:07.453Z,70.07
2018-04-17T02:57:35.808Z,69.87
2018-04-17T03:00:04.148Z,70.22
2018-04-17T03:02:32.515Z,69.77
2018-04-17T03:05:00.857Z,69.72
2018-04-17T03:07:29.219Z,69.58
2018-04-17T03:09:57.621Z,69.28
2018-04-17T03:12:25.964Z,69.39
2018-04-17T03:14:54.301Z,69.60
2018-04-17T03:17:22.662Z,69.07
2018-04-17T03:19:51.001Z,68.99
2018-04-17T03:22:19.360Z,68.90
2018-04-17T03:24:47.709Z,68.97
2018-04-17T03:27:16.065Z,68.89
2018-04-17T03:29:44.405Z,69.09
2018-04-17T03:32:12.765Z,69.12
2018-04-17T03:34:41.101Z,69.19
2018-04-17T03:37:09.468Z,69.17
2018-04-17T03:39:37.817Z,69.05
2018-04-17T03:42:06.169Z,69.33
2018-04-17T03:44:34.505Z,69.38
2018-04-17T03:47:02.874Z,69.24
2018-04-17T03:49:31.201Z,70.22
2018-04-17T03:51:59.533Z,70.65
2018-04-17T03:54:27.888Z,70.62
2018-04-17T03:56:56.220Z,70.50
2018-04-17T03:59:24.586Z,70.51
2018-04-17T04:01:52.929Z,70.42
2018-04-17T04:04:21.293Z,70.54
2018-04-17T04:06:49.625Z,69.86
2018-04-17T04:09:17.986Z,70.46
2018-04-17T04:11:46.328Z,70.74
2018-04-17T04:14:14.688Z,70.80
2018-04-17T04:16:55.013Z,70.87
2018-04-17T04:19:35.065Z,70.44
2018-04-17T04:22:15.265Z,70.22
2018-04-17T04:24:55.205Z,70.90
2018-04-17T04:27:23.565Z,71.28
2018-04-17T04:29:51.924Z,71.43
2018-04-17T04:32:20.260Z,71.82
2018-04-17T04:34:48.628Z,71.92
2018-04-17T04:37:16.965Z,71.57
2018-04-17T04:39:45.326Z,71.30
2018-04-17T04:42:13.665Z,71.49
2018-04-17T04:44:42.026Z,71.61
2018-04-17T04:47:10.362Z,71.35
2018-04-17T04:49:38.722Z,70.88
2018-04-17T04:52:07.069Z,70.97
2018-04-17T04:54:35.421Z,71.29
2018-04-17T04:57:03.756Z,72.11
2018-04-17T04:59:32.112Z,72.28
2018-04-17T05:02:00.454Z,71.90
2018-04-17T05:04:28.809Z,72.05
2018-04-17T05:06:57.141Z,71.99
2018-04-17T05:09:25.501Z,71.89
2018-04-17T05:11:53.846Z,71.95
2018-04-17T05:14:22.205Z,71.93
2018-04-17T05:16:50.548Z,71.82
2018-04-17T05:19:18.909Z,71.50
2018-04-17T05:21:47.246Z,71.85
2018-04-17T05:24:15.604Z,71.72
2018-04-17T05:26:43.937Z,71.60
2018-04-17T05:29:12.300Z,71.27
2018-04-17T05:31:40.633Z,71.12
2018-04-17T05:34:09.016Z,70.67
2018-04-17T05:36:37.333Z,70.88
2018-04-17T05:39:05.709Z,70.96
2018-04-17T05:41:34.045Z,71.13
2018-04-17T05:44:02.404Z,71.14
2018-04-17T05:46:30.745Z,71.48
2018-04-17T05:48:59.096Z,71.90
2018-04-17T05:51:27.428Z,71.70
2018-04-17T05:53:55.785Z,71.90
2018-04-17T05:56:24.618Z,71.58
2018-04-17T05:58:52.990Z,72.05
2018-04-17T06:01:21.324Z,72.74
2018-04-17T06:03:49.859Z,73.23
2018-04-17T06:06:18.152Z,73.81
2018-04-17T06:08:46.513Z,74.21
2018-04-17T06:11:14.856Z,74.16
2018-04-17T06:13:43.245Z,74.19
2018-04-17T06:16:11.557Z,74.36
2018-04-17T06:18:39.912Z,74.37
2018-04-17T06:21:08.250Z,74.20
2018-04-17T06:23:36.626Z,74.18
2018-04-17T06:26:04.990Z,73.49
2018-04-17T06:28:33.317Z,73.71
2018-04-17T06:31:01.678Z,73.81
2018-04-17T06:33:30.013Z,74.17
2018-04-17T06:35:58.368Z,72.95
2018-04-17T06:38:26.706Z,73.46
2018-04-17T06:40:55.081Z,73.92
2018-04-17T06:43:24.337Z,74.01
2018-04-17T06:45:52.693Z,74.20
2018-04-17T06:48:21.029Z,73.77
2018-04-17T06:50:49.392Z,73.35
2018-04-17T06:53:17.720Z,72.75
2018-04-17T06:55:46.077Z,72.15
2018-04-17T06:58:14.419Z,71.08
2018-04-17T07:00:42.773Z,71.38
2018-04-17T07:03:11.865Z,71.76
2018-04-17T07:05:40.225Z,71.96
2018-04-17T07:08:08.581Z,71.93
2018-04-17T07:10:36.931Z,72.06
2018-04-17T07:13:05.273Z,71.70
2018-04-17T07:15:33.628Z,71.20
2018-04-17T07:18:01.961Z,71.30
2018-04-17T07:20:30.316Z,70.97
2018-04-17T07:22:58.653Z,71.80
2018-04-17T07:25:27.019Z,72.13
2018-04-17T07:27:55.354Z,72.56
2018-04-17T07:30:23.714Z,72.28
2018-04-17T07:32:52.062Z,72.64
2018-04-17T07:35:20.421Z,72.40
2018-04-17T07:37:48.756Z,72.04
2018-04-17T07:40:17.114Z,71.91
2018-04-17T07:42:45.449Z,72.62
2018-04-17T07:45:13.810Z,72.46
2018-04-17T07:47:48.054Z,71.81
2018-04-17T07:50:16.409Z,71.68
2018-04-17T07:52:44.752Z,71.66
2018-04-17T07:55:13.110Z,71.75
2018-04-17T07:57:41.445Z,70.99
2018-04-17T08:00:09.805Z,70.95
2018-04-17T08:02:38.137Z,70.95
2018-04-17T08:05:06.501Z,70.45
2018-04-17T08:07:34.828Z,69.91
2018-04-17T08:10:03.188Z,70.26
2018-04-17T08:12:31.517Z,70.02
2018-04-17T08:14:59.869Z,70.28
2018-04-17T08:17:28.206Z,70.40
2018-04-17T08:19:56.557Z,70.10
2018-04-17T08:22:24.888Z,69.85
2018-04-17T08:24:53.249Z,69.27
2018-04-17T08:27:21.579Z,69.28
2018-04-17T08:29:49.941Z,69.01
2018-04-17T08:32:18.268Z,68.20
2018-04-17T08:34:46.632Z,68.36
2018-04-17T08:37:14.965Z,67.84
2018-04-17T08:39:43.301Z,68.46
2018-04-17T08:42:11.661Z,67.75
2018-04-17T08:44:39.989Z,68.41
2018-04-17T08:47:08.345Z,67.53
2018-04-17T08:49:36.674Z,67.39
2018-04-17T08:52:05.028Z,67.17
2018-04-17T08:54:33.368Z,66.25
2018-04-17T08:57:01.725Z,66.35
2018-04-17T08:59:30.061Z,65.26
2018-04-17T09:01:58.413Z,65.17
2018-04-17T09:04:26.754Z,65.33
2018-04-17T09:06:55.110Z,64.40
2018-04-17T09:09:23.447Z,61.88
2018-04-17T09:11:51.846Z,61.83
2018-04-17T09:14:20.138Z,60.73
2018-04-17T09:16:48.493Z,60.03
2018-04-17T09:19:16.828Z,60.21
2018-04-17T09:21:45.185Z,59.26
2018-04-17T09:24:13.528Z,57.97
2018-04-17T09:26:41.877Z,58.76
2018-04-17T09:29:10.212Z,58.48
2018-04-17T09:31:38.566Z,58.55
2018-04-17T09:34:06.892Z,58.33
2018-04-17T09:36:35.244Z,56.47
2018-04-17T09:39:03.577Z,53.56
2018-04-17T09:41:31.937Z,53.45
2018-04-17T09:44:00.269Z,50.89
2018-04-17T09:46:28.624Z,51.52
2018-04-17T09:48:56.978Z,50.97
2018-04-17T09:51:25.318Z,51.72
2018-04-17T09:53:53.640Z,49.78
2018-04-17T09:56:21.996Z,50.10
2018-04-17T09:58:51.100Z,50.75
2018-04-17T10:01:22.384Z,50.56
2018-04-17T10:03:50.721Z,48.57
2018-04-17T10:06:19.072Z,50.67
2018-04-17T10:08:47.447Z,51.54
2018-04-17T10:11:15.760Z,49.45
2018-04-17T10:13:44.093Z,48.48
2018-04-17T10:16:12.450Z,48.02
2018-04-17T10:18:40.776Z,46.68
2018-04-17T10:21:09.137Z,46.00
2018-04-17T10:23:37.472Z,46.40
2018-04-17T10:26:05.837Z,46.94
2018-04-17T10:28:34.174Z,44.87
2018-04-17T10:31:02.529Z,43.88
2018-04-17T10:33:30.861Z,43.42
2018-04-17T10:35:59.217Z,44.56
2018-04-17T10:38:27.557Z,44.63
2018-04-17T10:40:55.889Z,42.00
2018-04-17T10:43:24.245Z,44.39
2018-04-17T10:45:52.582Z,45.03
2018-04-17T10:48:20.945Z,47.56
2018-04-17T10:50:49.281Z,46.41
2018-04-17T10:53:17.640Z,46.88
2018-04-17T10:55:45.984Z,46.19
2018-04-17T10:58:14.341Z,47.80
2018-04-17T11:00:42.676Z,42.97
2018-04-17T11:03:11.039Z,44.38
2018-04-17T11:05:39.377Z,46.79
2018-04-17T11:08:07.724Z,44.68
2018-04-17T11:10:36.064Z,44.98
2018-04-17T11:13:04.412Z,45.18
2018-04-17T11:15:32.753Z,47.39
2018-04-17T11:18:01.101Z,44.84
2018-04-17T11:20:29.429Z,45.38
2018-04-17T11:22:57.785Z,44.21
2018-04-17T11:25:26.117Z,43.83
2018-04-17T11:27:54.473Z,43.89
2018-04-17T11:30:26.302Z,43.17
2018-04-17T11:32:54.662Z,42.63
2018-04-17T11:35:22.996Z,42.10
2018-04-17T11:37:51.352Z,42.01
2018-04-17T11:40:19.705Z,42.45
2018-04-17T11:42:48.083Z,42.54
2018-04-17T11:45:16.413Z,42.33
2018-04-17T11:47:44.773Z,41.20
2018-04-17T11:50:13.112Z,42.61
2018-04-17T11:52:41.484Z,42.04
2018-04-17T11:55:09.822Z,41.00
2018-04-17T11:57:38.245Z,42.34
2018-04-17T12:00:06.581Z,41.71
2018-04-17T12:02:34.945Z,42.65
2018-04-17T12:05:03.279Z,41.92
2018-04-17T12:07:31.641Z,42.31
2018-04-17T12:09:59.977Z,41.60
2018-04-17T12:12:28.332Z,40.63
2018-04-17T12:14:56.668Z,39.71
2018-04-17T12:17:25.961Z,40.37
2018-04-17T12:19:54.292Z,39.97
2018-04-17T12:22:22.740Z,40.92
2018-04-17T12:24:51.080Z,41.84
2018-04-17T12:27:19.429Z,41.59
2018-04-17T12:29:47.761Z,42.52
2018-04-17T12:32:16.189Z,41.94
2018-04-17T12:34:44.653Z,40.34
2018-04-17T12:37:13.004Z,41.16
2018-04-17T12:39:41.382Z,39.95
2018-04-17T12:42:09.757Z,41.23
2018-04-17T12:44:38.109Z,40.98
2018-04-17T12:47:06.443Z,40.08
2018-04-17T12:49:34.805Z,38.15
2018-04-17T12:52:03.132Z,40.08
2018-04-17T12:54:31.483Z,40.39
2018-04-17T12:56:59.808Z,39.72
2018-04-17T12:59:28.160Z,38.01
2018-04-17T13:01:56.495Z,38.90
2018-04-17T13:04:24.848Z,40.58
2018-04-17T13:06:53.178Z,40.35
2018-04-17T13:09:21.533Z,40.46
2018-04-17T13:11:49.862Z,39.40
2018-04-17T13:14:18.217Z,41.08
2018-04-17T13:16:46.552Z,37.96
2018-04-17T13:19:14.901Z,39.42
2018-04-17T13:21:43.231Z,38.87
2018-04-17T13:24:11.584Z,37.82
2018-04-17T13:26:39.921Z,38.13
2018-04-17T13:29:08.276Z,39.69
2018-04-17T13:31:36.604Z,39.19
2018-04-17T13:34:04.956Z,38.65
2018-04-17T13:36:33.288Z,38.89
2018-04-17T13:39:01.653Z,39.36
2018-04-17T13:41:29.985Z,38.83
2018-04-17T13:43:58.341Z,38.47
2018-04-17T13:46:26.669Z,38.84
2018-04-17T13:48:55.022Z,36.93
2018-04-17T13:51:23.349Z,36.62
2018-04-17T13:53:51.689Z,35.25
2018-04-17T13:56:20.015Z,35.05
2018-04-17T13:58:48.368Z,36.64
2018-04-17T14:01:16.689Z,36.60
2018-04-17T14:03:45.045Z,35.56
2018-04-17T14:06:13.373Z,34.79
2018-04-17T14:08:41.725Z,35.31
2018-04-17T14:11:10.058Z,36.23
2018-04-17T14:13:38.545Z,36.41
2018-04-17T14:16:06.884Z,36.66
2018-04-17T14:18:35.253Z,35.81
2018-04-17T14:21:03.590Z,34.64
2018-04-17T14:23:31.944Z,35.00
2018-04-17T14:26:00.287Z,34.45
2018-04-17T14:28:28.645Z,34.55
2018-04-17T14:30:56.988Z,35.78
2018-04-17T14:33:25.392Z,36.04
2018-04-17T14:35:53.677Z,35.38
2018-04-17T14:38:22.037Z,35.04
2018-04-17T14:40:50.394Z,35.99
2018-04-17T14:43:18.784Z,33.95
2018-04-17T14:45:47.084Z,33.78
2018-04-17T14:48:15.420Z,33.68
2018-04-17T14:50:43.780Z,35.38
2018-04-17T14:53:12.137Z,35.09
2018-04-17T14:55:40.473Z,35.15
2018-04-17T14:58:08.864Z,35.25
2018-04-17T15:00:37.169Z,34.19
2018-04-17T15:03:05.505Z,35.54
2018-04-17T15:05:33.854Z,34.60
2018-04-17T15:08:02.197Z,33.57
2018-04-17T15:10:30.544Z,32.87
2018-04-17T15:12:58.873Z,33.05
2018-04-17T15:15:27.230Z,33.33
2018-04-17T15:17:55.573Z,34.19
2018-04-17T15:20:23.929Z,33.61
2018-04-17T15:22:52.276Z,33.90
2018-04-17T15:25:20.636Z,33.92
2018-04-17T15:27:48.969Z,33.34
2018-04-17T15:30:17.337Z,33.08
2018-04-17T15:32:45.665Z,33.86
2018-04-17T15:35:14.029Z,34.96
2018-04-17T15:37:42.360Z,34.21
2018-04-17T15:40:10.709Z,33.68
2018-04-17T15:42:39.045Z,33.82
2018-04-17T15:45:07.401Z,34.39
2018-04-17T15:47:36.657Z,35.16
2018-04-17T15:50:05.009Z,35.65
2018-04-17T15:52:33.345Z,35.01
2018-04-17T15:55:01.701Z,35.74
2018-04-17T15:57:30.042Z,36.09
2018-04-17T15:59:58.388Z,36.28
2018-04-17T16:02:26.729Z,36.02
2018-04-17T16:04:55.085Z,36.35
2018-04-17T16:07:23.459Z,37.25
2018-04-17T16:09:51.813Z,37.92
2018-04-17T16:12:20.141Z,40.00
2018-04-17T16:14:48.489Z,37.99
2018-04-17T16:17:16.817Z,37.98
2018-04-17T16:19:45.219Z,38.56
2018-04-17T16:22:13.514Z,37.31
2018-04-17T16:24:41.869Z,37.90
2018-04-17T16:27:10.208Z,37.90
2018-04-17T16:29:38.585Z,37.93
2018-04-17T16:32:06.913Z,37.74
2018-04-17T16:34:35.260Z,37.06
2018-04-17T16:37:04.493Z,37.49
2018-04-17T16:39:32.848Z,37.58
2018-04-17T16:42:01.289Z,37.89
2018-04-17T16:44:29.636Z,38.39
2018-04-17T16:46:57.977Z,38.30
2018-04-17T16:49:26.315Z,38.08
2018-04-17T16:51:54.673Z,38.02
2018-04-17T16:54:23.006Z,37.89
2018-04-17T16:56:51.362Z,38.80
2018-04-17T16:59:19.696Z,37.35
2018-04-17T17:01:48.053Z,37.84
2018-04-17T17:04:16.394Z,37.26
2018-04-17T17:06:45.689Z,36.88
2018-04-17T17:09:14.025Z,36.87
2018-04-17T17:11:42.391Z,37.23
2018-04-17T17:14:10.726Z,36.65
2018-04-17T17:16:39.085Z,38.67
2018-04-17T17:19:07.433Z,40.24
2018-04-17T17:21:35.806Z,40.50
2018-04-17T17:24:04.152Z,40.76
2018-04-17T17:26:32.508Z,41.33
2018-04-17T17:29:00.849Z,41.06
2018-04-17T17:31:29.217Z,41.29
2018-04-17T17:33:57.557Z,41.55
2018-04-17T17:36:26.925Z,41.99
2018-04-17T17:38:55.266Z,42.35
2018-04-17T17:41:23.629Z,42.44
2018-04-17T17:43:51.964Z,42.48
2018-04-17T17:46:20.329Z,42.79
2018-04-17T17:48:48.672Z,43.16
2018-04-17T17:51:17.037Z,43.39
2018-04-17T17:53:45.374Z,43.60
2018-04-17T17:56:13.733Z,44.28
2018-04-17T17:58:42.084Z,44.67
2018-04-17T18:01:10.442Z,44.69
2018-04-17T18:03:38.772Z,44.10
2018-04-17T18:06:07.133Z,43.98
2018-04-17T18:08:35.473Z,44.11
2018-04-17T18:11:03.844Z,44.42
2018-04-17T18:13:32.180Z,44.90
2018-04-17T18:16:00.541Z,44.76
2018-04-17T18:18:28.885Z,44.69
2018-04-17T18:20:57.245Z,44.02
2018-04-17T18:23:25.580Z,44.44
2018-04-17T18:25:53.942Z,44.45
2018-04-17T18:28:22.285Z,44.51
2018-04-17T18:30:50.648Z,44.59
2018-04-17T18:33:18.976Z,44.15
2018-04-17T18:35:47.382Z,43.95
2018-04-17T18:38:15.705Z,44.12
2018-04-17T18:40:44.142Z,43.85
2018-04-17T18:43:12.478Z,43.94
2018-04-17T18:45:41.569Z,44.11
2018-04-17T18:48:09.909Z,44.38
2018-04-17T18:50:38.373Z,44.62
2018-04-17T18:53:06.708Z,45.05
2018-04-17T18:55:35.053Z,45.31
2018-04-17T18:58:03.413Z,45.24
2018-04-17T19:00:31.748Z,45.50
2018-04-17T19:03:00.104Z,45.61
2018-04-17T19:05:28.446Z,45.48
2018-04-17T19:07:56.812Z,45.50
2018-04-17T19:10:25.148Z,45.93
2018-04-17T19:12:53.501Z,46.32
2018-04-17T19:15:21.839Z,46.34
2018-04-17T19:17:50.197Z,46.33
2018-04-17T19:20:18.535Z,46.35
2018-04-17T19:22:46.893Z,46.48
2018-04-17T19:25:15.940Z,47.06
2018-04-17T19:27:44.292Z,47.48
2018-04-17T19:30:12.628Z,47.80
2018-04-17T19:32:40.990Z,48.19
2018-04-17T19:35:09.324Z,48.49
2018-04-17T19:37:37.681Z,48.79
2018-04-17T19:40:06.023Z,48.99
2018-04-17T19:42:34.391Z,49.34
2018-04-17T19:45:02.716Z,49.62
2018-04-17T19:47:31.076Z,49.70
2018-04-17T19:49:59.413Z,49.74
2018-04-17T19:52:27.772Z,49.83
2018-04-17T19:54:56.114Z,50.03
2018-04-17T19:57:24.469Z,50.38
2018-04-17T19:59:52.805Z,50.88
2018-04-17T20:02:21.163Z,51.30
2018-04-17T20:04:50.429Z,51.31
2018-04-17T20:07:18.788Z,51.35
2018-04-17T20:09:47.124Z,51.89
2018-04-17T20:12:15.484Z,52.41
2018-04-17T20:14:43.824Z,52.84
2018-04-17T20:17:12.179Z,53.32
2018-04-17T20:19:40.524Z,53.52
2018-04-17T20:22:08.881Z,53.65
2018-04-17T20:24:38.081Z,54.06
2018-04-17T20:27:06.428Z,54.27
2018-04-17T20:29:34.764Z,54.56
2018-04-17T20:32:03.124Z,55.35
2018-04-17T20:34:31.466Z,55.60
2018-04-17T20:36:59.820Z,56.25
2018-04-17T20:39:28.162Z,56.42
2018-04-17T20:41:56.521Z,56.40
2018-04-17T20:44:24.861Z,56.60
2018-04-17T20:46:53.220Z,56.66
2018-04-17T20:49:21.551Z,56.74
2018-04-17T20:51:49.936Z,57.03
2018-04-17T20:54:18.272Z,56.89
2018-04-17T20:56:46.613Z,56.64
2018-04-17T20:59:14.968Z,56.04
2018-04-17T21:01:43.311Z,55.72
2018-04-17T21:04:11.670Z,55.22
2018-04-17T21:06:40.005Z,55.31
2018-04-17T21:09:08.365Z,55.27
2018-04-17T21:11:36.704Z,55.45
2018-04-17T21:14:05.060Z,55.34
2018-04-17T21:16:34.314Z,55.06
2018-04-17T21:19:02.673Z,54.86
2018-04-17T21:21:31.017Z,54.92
2018-04-17T21:23:59.376Z,54.80
2018-04-17T21:26:28.636Z,54.70
2018-04-17T21:28:56.993Z,54.99
2018-04-17T21:31:25.328Z,55.11
2018-04-17T21:33:53.688Z,55.34
2018-04-17T21:36:22.025Z,55.67
2018-04-17T21:38:50.380Z,55.80
2018-04-17T21:41:18.719Z,55.74
2018-04-17T21:43:47.073Z,55.96
2018-04-17T21:46:15.409Z,56.53
2018-04-17T21:48:43.773Z,56.77
2018-04-17T21:51:12.115Z,56.92
2018-04-17T21:53:40.518Z,57.54
2018-04-17T21:56:08.928Z,57.98
2018-04-17T21:58:37.313Z,58.14
2018-04-17T22:01:05.656Z,58.27
2018-04-17T22:03:34.028Z,58.55
2018-04-17T22:06:02.352Z,58.64
2018-04-17T22:08:30.712Z,58.89
2018-04-17T22:10:59.043Z,59.19
2018-04-17T22:13:27.397Z,59.25
2018-04-17T22:15:55.729Z,59.05
2018-04-17T22:18:24.089Z,59.00
2018-04-17T22:20:52.425Z,59.09
2018-04-17T22:23:20.777Z,59.48
2018-04-17T22:25:49.112Z,59.37
2018-04-17T22:28:17.466Z,59.96
2018-04-17T22:30:45.801Z,59.92
2018-04-17T22:33:14.157Z,60.16
2018-04-17T22:35:42.501Z,60.25
2018-04-17T22:38:10.861Z,59.96
2018-04-17T22:40:39.185Z,59.59
2018-04-17T22:43:07.536Z,59.71
2018-04-17T22:45:35.881Z,60.01
2018-04-17T22:48:04.228Z,60.58
2018-04-17T22:50:32.565Z,60.35
2018-04-17T22:53:00.920Z,60.10
2018-04-17T22:55:29.257Z,60.06
2018-04-17T22:57:57.593Z,60.10
2018-04-17T23:00:25.950Z,60.28
2018-04-17T23:02:54.285Z,60.87
2018-04-17T23:05:22.636Z,61.24
2018-04-17T23:07:50.972Z,61.08
2018-04-17T23:10:19.325Z,60.86
2018-04-17T23:12:47.665Z,60.71
2018-04-17T23:15:16.012Z,60.52
2018-04-17T23:17:44.341Z,60.68
2018-04-17T23:20:12.701Z,61.11
2018-04-17T23:22:41.032Z,61.39
2018-04-17T23:25:09.389Z,61.59
2018-04-17T23:27:37.718Z,61.66
2018-04-17T23:30:06.076Z,61.69
2018-04-17T23:32:34.412Z,61.44
2018-04-17T23:35:02.782Z,61.76
2018-04-17T23:37:31.116Z,61.64
2018-04-17T23:39:59.473Z,61.73
2018-04-17T23:42:27.809Z,61.72
2018-04-17T23:44:56.164Z,61.78
2018-04-17T23:47:24.493Z,62.11
2018-04-17T23:49:52.852Z,62.16
2018-04-17T23:52:21.189Z,62.29
2018-04-17T23:54:49.558Z,62.39
2018-04-17T23:57:17.893Z,62.47
2018-04-17T23:59:46.248Z,62.42
